Time;durP1;ratioP1;P1;durP2;ratioP2;P2;SDS_P1;SDS_P2;PMS_P1;PMS_P2;Temp;Humidity;BMP_temperature;BMP_pressure;BME280_temperature;BME280_humidity;BME280_pressure;Samples;Min_cycle;Max_cycle;Signal;HPM_P1;HPM_P2
2022/12/28 00:00:06;;;;;;;37.03;23.33;;;;;;;1.44;100.00;100821.69;4997860;28;20640;-66
2022/12/28 00:02:32;;;;;;;35.60;24.20;;;;;;;1.67;100.00;100806.31;5013764;28;20455;-67
2022/12/28 00:04:57;;;;;;;31.27;19.60;;;;;;;1.63;100.00;100804.66;5011907;28;20274;-68
2022/12/28 00:07:22;;;;;;;24.13;15.97;;;;;;;1.65;100.00;100787.75;5010169;28;20958;-67
2022/12/28 00:09:47;;;;;;;20.20;13.60;;;;;;;1.54;100.00;100792.88;5011596;28;20243;-67
2022/12/28 00:12:16;;;;;;;20.37;13.93;;;;;;;1.49;100.00;100779.41;4993152;28;20237;-67
2022/12/28 00:14:41;;;;;;;24.87;16.20;;;;;;;1.45;100.00;100772.66;5010627;28;20200;-67
2022/12/28 00:17:07;;;;;;;36.93;19.77;;;;;;;1.55;100.00;100770.91;5006007;28;20222;-67
2022/12/28 00:19:32;;;;;;;24.37;13.77;;;;;;;1.62;100.00;100775.06;5011719;28;20701;-67
2022/12/28 00:21:57;;;;;;;37.20;20.87;;;;;;;1.60;100.00;100767.50;5016359;28;20220;-67
2022/12/28 00:24:24;;;;;;;15.73;8.83;;;;;;;1.55;100.00;100756.53;5012317;28;20203;-67
2022/12/28 00:26:49;;;;;;;18.83;9.60;;;;;;;1.67;100.00;100758.13;5010112;28;20630;-67
2022/12/28 00:29:15;;;;;;;23.33;12.80;;;;;;;1.69;100.00;100753.06;5010511;28;20190;-67
2022/12/28 00:31:41;;;;;;;21.77;12.03;;;;;;;1.58;100.00;100753.13;5014349;28;20662;-67
2022/12/28 00:34:06;;;;;;;18.03;10.07;;;;;;;1.76;100.00;100757.22;5014157;28;20196;-67
2022/12/28 00:36:32;;;;;;;12.87;8.43;;;;;;;1.86;100.00;100745.31;5011382;28;20193;-67
2022/12/28 00:38:58;;;;;;;13.87;7.27;;;;;;;1.89;100.00;100751.19;5011452;28;20719;-67
2022/12/28 00:41:23;;;;;;;11.43;7.50;;;;;;;1.92;100.00;100742.72;5011931;28;20725;-67
2022/12/28 00:43:49;;;;;;;11.17;6.47;;;;;;;1.78;100.00;100737.75;5026826;28;20198;-67
2022/12/28 00:46:14;;;;;;;9.50;6.13;;;;;;;1.90;100.00;100735.13;5012464;28;20232;-66
2022/12/28 00:48:40;;;;;;;13.63;7.53;;;;;;;1.96;100.00;100731.72;5015307;28;20187;-65
2022/12/28 00:51:08;;;;;;;16.47;9.30;;;;;;;1.92;100.00;100712.28;5013183;28;20708;-66
2022/12/28 00:53:36;;;;;;;14.13;8.43;;;;;;;2.03;100.00;100710.47;5013580;28;20271;-66
2022/12/28 00:56:07;;;;;;;12.90;7.80;;;;;;;2.04;100.00;100698.66;5014382;28;20213;-66
2022/12/28 00:58:33;;;;;;;12.60;7.83;;;;;;;1.99;100.00;100691.06;5012023;28;20269;-66
2022/12/28 01:00:59;;;;;;;13.10;6.93;;;;;;;2.14;100.00;100687.53;5001333;28;20245;-66
2022/12/28 01:03:24;;;;;;;12.60;6.43;;;;;;;2.25;100.00;100680.66;5022824;28;20211;-66
2022/12/28 01:05:50;;;;;;;8.53;5.47;;;;;;;2.37;100.00;100683.91;5014708;28;20185;-66
2022/12/28 01:08:15;;;;;;;10.50;6.97;;;;;;;2.48;100.00;100678.72;5014374;28;20617;-66
2022/12/28 01:10:40;;;;;;;9.77;6.70;;;;;;;2.30;100.00;100690.75;5009858;28;20233;-66
2022/12/28 01:13:06;;;;;;;10.73;6.80;;;;;;;2.40;100.00;100679.63;5024719;28;20170;-66
2022/12/28 01:15:31;;;;;;;8.90;6.17;;;;;;;2.60;100.00;100681.09;5014802;28;20183;-66
2022/12/28 01:17:56;;;;;;;12.03;7.07;;;;;;;2.70;100.00;100677.56;5013944;28;20198;-66
2022/12/28 01:20:25;;;;;;;10.23;6.50;;;;;;;2.72;100.00;100659.78;5005558;28;20225;-66
2022/12/28 01:22:50;;;;;;;9.73;6.20;;;;;;;2.94;100.00;100662.91;5008422;28;20721;-66
2022/12/28 01:25:15;;;;;;;11.23;5.93;;;;;;;2.99;100.00;100655.19;5006253;28;20269;-66
2022/12/28 01:27:41;;;;;;;11.93;6.90;;;;;;;2.91;100.00;100657.84;5013997;28;20183;-66
2022/12/28 01:30:06;;;;;;;9.40;5.70;;;;;;;3.00;100.00;100652.63;5004871;28;20243;-66
2022/12/28 01:32:32;;;;;;;7.80;6.40;;;;;;;2.89;100.00;100651.94;5027870;28;20182;-66
2022/12/28 01:34:57;;;;;;;7.27;6.43;;;;;;;2.77;100.00;100652.94;5014480;28;20642;-67
2022/12/28 01:37:22;;;;;;;9.80;6.50;;;;;;;2.91;100.00;100642.59;5013526;28;20215;-66
2022/12/28 01:39:47;;;;;;;10.37;6.70;;;;;;;3.01;100.00;100650.94;5014564;28;20290;-66
2022/12/28 01:42:18;;;;;;;12.50;6.30;;;;;;;2.95;100.00;100646.75;5017574;28;20225;-66
2022/12/28 01:44:46;;;;;;;9.83;6.53;;;;;;;2.93;100.00;100642.56;5013074;28;20181;-66
2022/12/28 01:47:14;;;;;;;8.57;6.70;;;;;;;2.94;100.00;100646.78;5013570;28;20191;-66
2022/12/28 01:49:47;;;;;;;11.57;6.80;;;;;;;3.09;100.00;100651.66;5012830;28;20177;-66
2022/12/28 01:52:40;;;;;;;9.97;7.33;;;;;;;3.13;100.00;100666.00;5004434;28;20220;-66
2022/12/28 01:55:12;;;;;;;12.97;7.13;;;;;;;3.01;100.00;100649.22;5012658;28;20236;-67
2022/12/28 01:57:49;;;;;;;9.67;6.83;;;;;;;2.82;100.00;100630.03;5007944;28;20681;-66
2022/12/28 02:00:15;;;;;;;9.07;7.10;;;;;;;2.95;100.00;100634.06;5002537;28;20183;-66
2022/12/28 02:03:09;;;;;;;8.87;7.23;;;;;;;2.87;100.00;100640.97;5027387;28;20179;-66
2022/12/28 02:05:40;;;;;;;9.23;7.07;;;;;;;2.88;100.00;100627.41;4998881;28;20660;-67
2022/12/28 02:08:08;;;;;;;8.90;7.13;;;;;;;3.03;100.00;100637.34;5013135;28;20183;-66
2022/12/28 02:10:36;;;;;;;10.70;7.80;;;;;;;3.07;100.00;100644.03;5001841;28;20300;-66
2022/12/28 02:13:02;;;;;;;10.53;7.87;;;;;;;3.22;100.00;100637.06;5010248;28;20186;-66
2022/12/28 02:15:33;;;;;;;10.13;7.70;;;;;;;3.12;100.00;100633.81;5013864;28;20183;-66
2022/12/28 02:17:59;;;;;;;12.67;6.97;;;;;;;3.10;100.00;100622.00;5007022;28;20236;-66
2022/12/28 02:20:32;;;;;;;9.03;6.53;;;;;;;3.06;100.00;100626.28;4997598;28;20256;-66
2022/12/28 02:23:22;;;;;;;9.90;6.83;;;;;;;3.09;100.00;100630.47;5012274;28;20206;-66
2022/12/28 02:26:23;;;;;;;12.10;8.17;;;;;;;3.13;100.00;100621.97;5011966;28;20174;-66
2022/12/28 02:29:21;;;;;;;8.70;7.80;;;;;;;3.29;100.00;100620.84;5013343;28;20182;-66
2022/12/28 02:32:13;;;;;;;8.90;6.80;;;;;;;3.12;100.00;100612.66;5017022;28;20240;-66
2022/12/28 02:34:57;;;;;;;10.73;7.27;;;;;;;3.03;100.00;100604.28;5003173;28;20190;-66
2022/12/28 02:37:34;;;;;;;10.53;7.00;;;;;;;3.15;100.00;100598.19;5027802;28;20645;-67
2022/12/28 02:40:06;;;;;;;13.20;7.27;;;;;;;3.11;100.00;100585.53;5011797;28;20189;-67
2022/12/28 02:42:35;;;;;;;9.73;7.60;;;;;;;2.97;100.00;100576.44;4974236;28;20214;-66
2022/12/28 02:51:08;;;;;;;11.37;7.83;;;;;;;2.58;100.00;100559.22;5005022;28;20291;-67
2022/12/28 02:54:02;;;;;;;9.00;7.70;;;;;;;2.67;100.00;100552.34;4971405;28;20183;-66
2022/12/28 02:56:45;;;;;;;13.27;8.33;;;;;;;2.62;100.00;100549.84;4970933;28;20192;-66
2022/12/28 02:59:16;;;;;;;12.17;8.80;;;;;;;2.69;100.00;100550.59;4955389;28;20211;-66
2022/12/28 03:01:42;;;;;;;11.90;8.33;;;;;;;2.83;100.00;100552.91;4945383;28;20223;-66
2022/12/28 03:04:22;;;;;;;10.57;8.73;;;;;;;2.68;100.00;100559.94;4971408;28;20655;-66
2022/12/28 03:10:09;;;;;;;8.90;7.80;;;;;;;2.82;100.00;100549.56;4971256;28;20279;-66
2022/12/28 03:12:42;;;;;;;13.33;8.47;;;;;;;2.87;100.00;100552.03;4961610;28;20238;-67
2022/12/28 03:15:12;;;;;;;14.03;8.80;;;;;;;2.80;100.00;100546.19;4955132;28;20281;-66
2022/12/28 03:31:40;;;;;;;10.63;8.63;;;;;;;2.93;100.00;100507.88;5014858;28;20258;-66
2022/12/28 03:34:06;;;;;;;11.57;8.27;;;;;;;3.01;100.00;100499.25;5010348;28;20549;-66
2022/12/28 03:36:43;;;;;;;10.90;9.47;;;;;;;3.00;100.00;100497.59;5010804;28;20220;-66
2022/12/28 03:39:30;;;;;;;10.00;8.37;;;;;;;2.93;100.00;100479.91;5007460;28;20230;-66
2022/12/28 03:45:00;;;;;;;12.33;9.20;;;;;;;2.70;100.00;100473.53;5011906;28;20274;-66
2022/12/28 03:47:28;;;;;;;15.67;9.33;;;;;;;2.83;100.00;100464.00;5026708;28;20190;-66
2022/12/28 03:49:54;;;;;;;10.73;8.30;;;;;;;2.72;100.00;100465.00;5007503;28;20179;-66
2022/12/28 03:52:20;;;;;;;13.23;9.43;;;;;;;2.74;100.00;100457.34;5017129;28;20562;-66
2022/12/28 03:54:45;;;;;;;11.13;8.93;;;;;;;2.71;100.00;100460.78;5012130;28;20195;-66
2022/12/28 03:57:10;;;;;;;13.10;9.07;;;;;;;2.78;100.00;100459.00;5010388;28;20190;-66
2022/12/28 03:59:36;;;;;;;11.87;8.53;;;;;;;2.75;100.00;100464.13;5011946;28;20205;-66
2022/12/28 04:02:01;;;;;;;11.90;8.83;;;;;;;2.73;100.00;100451.44;5006847;28;20237;-66
2022/12/28 04:04:26;;;;;;;11.33;8.87;;;;;;;2.78;100.00;100446.31;5010575;28;20654;-66
2022/12/28 04:06:51;;;;;;;9.57;8.17;;;;;;;2.85;100.00;100450.44;5006876;28;20196;-66
2022/12/28 04:09:17;;;;;;;15.80;7.87;;;;;;;2.90;100.00;100447.78;5004930;28;20198;-66
2022/12/28 04:11:42;;;;;;;11.30;8.10;;;;;;;3.18;100.00;100449.84;5014607;28;20256;-67
2022/12/28 04:14:07;;;;;;;12.63;8.43;;;;;;;3.15;100.00;100448.19;5014335;28;20233;-66
2022/12/28 04:16:33;;;;;;;9.60;8.03;;;;;;;3.25;100.00;100448.03;5007135;28;20230;-67
2022/12/28 04:18:58;;;;;;;10.77;8.13;;;;;;;3.39;100.00;100444.34;5011734;28;20215;-67
2022/12/28 04:21:23;;;;;;;9.17;7.43;;;;;;;3.29;100.00;100439.50;5006658;28;20232;-67
2022/12/28 04:23:48;;;;;;;10.20;8.13;;;;;;;3.09;100.00;100438.16;5014501;28;20218;-67
2022/12/28 04:26:15;;;;;;;11.43;8.13;;;;;;;3.06;100.00;100436.50;5014791;28;20178;-67
2022/12/28 04:28:41;;;;;;;12.33;8.47;;;;;;;3.03;100.00;100438.25;5031174;28;20554;-67
2022/12/28 04:31:10;;;;;;;10.10;7.73;;;;;;;3.18;100.00;100437.13;5003884;28;20227;-67
2022/12/28 04:33:36;;;;;;;11.00;8.37;;;;;;;3.10;100.00;100431.34;5007031;28;20186;-67
2022/12/28 04:36:07;;;;;;;11.47;7.97;;;;;;;3.36;100.00;100433.38;5029822;28;20182;-67
2022/12/28 04:38:34;;;;;;;10.17;7.67;;;;;;;3.32;100.00;100430.06;5010753;28;20207;-66
2022/12/28 04:41:01;;;;;;;8.50;7.30;;;;;;;3.46;100.00;100418.78;5012575;28;20226;-67
2022/12/28 04:43:26;;;;;;;8.37;7.00;;;;;;;3.51;100.00;100411.91;5014151;28;20552;-67
2022/12/28 04:45:59;;;;;;;9.97;7.30;;;;;;;3.69;100.00;100411.53;5013498;28;20225;-67
2022/12/28 04:48:26;;;;;;;9.80;8.27;;;;;;;3.78;100.00;100407.94;5015235;28;20183;-67
2022/12/28 04:50:52;;;;;;;8.17;7.33;;;;;;;3.85;100.00;100416.31;5023409;28;20241;-67
2022/12/28 04:53:17;;;;;;;8.73;7.90;;;;;;;4.00;100.00;100422.75;5013653;28;20179;-67
2022/12/28 04:55:43;;;;;;;12.17;7.03;;;;;;;4.17;100.00;100407.13;5015414;28;20650;-66
2022/12/28 04:58:08;;;;;;;8.90;6.87;;;;;;;4.29;100.00;100413.63;5014329;28;20237;-66
2022/12/28 05:00:33;;;;;;;10.70;8.17;;;;;;;4.10;100.00;100406.41;5008866;28;20640;-66
2022/12/28 05:02:59;;;;;;;9.57;7.30;;;;;;;4.19;100.00;100396.03;5025960;28;20237;-66
2022/12/28 05:05:25;;;;;;;10.07;7.37;;;;;;;4.32;100.00;100396.56;5015358;28;20253;-66
2022/12/28 05:07:51;;;;;;;11.83;8.07;;;;;;;4.27;100.00;100395.00;5029036;28;20182;-66
2022/12/28 05:10:16;;;;;;;8.77;7.83;;;;;;;4.24;100.00;100380.63;5006524;28;20239;-67
2022/12/28 05:12:41;;;;;;;12.17;6.77;;;;;;;4.23;100.00;100378.09;5014040;28;20179;-66
2022/12/28 05:15:07;;;;;;;8.50;7.50;;;;;;;4.11;100.00;100377.53;5015247;28;20316;-66
2022/12/28 05:17:33;;;;;;;10.07;7.50;;;;;;;4.24;100.00;100372.16;5014126;28;20222;-66
2022/12/28 05:19:58;;;;;;;12.70;7.47;;;;;;;4.32;100.00;100378.72;5014589;28;20206;-67
2022/12/28 05:22:23;;;;;;;10.03;7.03;;;;;;;4.38;100.00;100374.34;5020108;28;20223;-67
2022/12/28 05:24:49;;;;;;;11.90;7.67;;;;;;;4.46;100.00;100380.09;5014638;28;20191;-67
2022/12/28 05:27:14;;;;;;;9.27;7.90;;;;;;;4.39;100.00;100376.03;5010429;28;20208;-67
2022/12/28 05:29:39;;;;;;;9.27;7.13;;;;;;;4.38;100.00;100374.34;5014749;28;20175;-67
2022/12/28 05:32:05;;;;;;;9.67;7.27;;;;;;;4.17;100.00;100376.56;5001976;28;20228;-67
2022/12/28 05:34:30;;;;;;;10.53;8.10;;;;;;;4.18;100.00;100376.53;5000308;28;20480;-67
2022/12/28 05:36:55;;;;;;;10.40;8.13;;;;;;;4.18;100.00;100376.53;5009261;28;20176;-67
2022/12/28 05:39:21;;;;;;;9.33;7.73;;;;;;;4.27;100.00;100372.91;5014166;28;20206;-67
2022/12/28 05:41:46;;;;;;;8.93;7.97;;;;;;;4.30;100.00;100377.91;5002864;28;20220;-67
2022/12/28 05:44:11;;;;;;;13.30;8.03;;;;;;;4.28;100.00;100372.03;5013820;28;20183;-67
2022/12/28 05:46:37;;;;;;;11.67;8.73;;;;;;;4.31;100.00;100371.97;5014118;28;20639;-67
2022/12/28 05:49:02;;;;;;;9.20;8.20;;;;;;;4.15;100.00;100363.84;5013901;28;20190;-67
2022/12/28 05:51:30;;;;;;;12.27;8.73;;;;;;;4.02;100.00;100349.75;5002205;28;20704;-67
2022/12/28 05:53:57;;;;;;;10.67;9.23;;;;;;;4.13;100.00;100354.56;5012003;28;20189;-67
2022/12/28 05:56:26;;;;;;;11.17;8.37;;;;;;;4.06;100.00;100351.34;5011571;28;20222;-68
2022/12/28 05:59:12;;;;;;;10.47;8.57;;;;;;;4.10;100.00;100350.41;5009110;28;20207;-67
2022/12/28 06:01:41;;;;;;;10.70;8.40;;;;;;;4.16;100.00;100351.97;5011747;28;20226;-67
2022/12/28 06:04:15;;;;;;;9.47;7.97;;;;;;;4.06;100.00;100351.34;5012197;28;20183;-67
2022/12/28 06:06:41;;;;;;;12.53;8.53;;;;;;;4.12;100.00;100341.03;5028423;28;20270;-67
2022/12/28 06:09:06;;;;;;;8.80;7.97;;;;;;;3.99;100.00;100348.09;5009165;28;20272;-67
2022/12/28 06:11:32;;;;;;;12.43;8.67;;;;;;;4.02;100.00;100337.03;5002731;28;20253;-67
2022/12/28 06:13:58;;;;;;;17.13;9.90;;;;;;;3.97;100.00;100323.53;5011918;28;20211;-67
2022/12/28 06:16:26;;;;;;;10.37;9.27;;;;;;;4.15;100.00;100323.09;5008029;28;20214;-67
2022/12/28 06:18:52;;;;;;;12.67;9.57;;;;;;;4.13;100.00;100318.94;5005261;28;20214;-67
2022/12/28 06:21:20;;;;;;;13.23;8.87;;;;;;;4.15;100.00;100317.19;5001674;28;20277;-67
2022/12/28 06:23:46;;;;;;;10.80;8.83;;;;;;;4.11;100.00;100315.59;5010728;28;20206;-67
2022/12/28 06:26:14;;;;;;;16.23;9.00;;;;;;;4.23;100.00;100311.91;5012411;28;20214;-67
2022/12/28 06:28:43;;;;;;;12.07;8.23;;;;;;;4.20;100.00;100307.72;5028638;28;20246;-67
2022/12/28 06:31:14;;;;;;;9.67;7.47;;;;;;;4.30;100.00;100308.34;5005134;28;20219;-67
2022/12/28 06:33:40;;;;;;;9.93;7.27;;;;;;;4.52;100.00;100299.25;5005473;28;20202;-67
2022/12/28 06:36:22;;;;;;;9.47;6.23;;;;;;;4.52;100.00;100300.97;5008002;28;20175;-67
2022/12/28 06:38:49;;;;;;;9.03;5.40;;;;;;;4.73;100.00;100304.66;5002848;28;20204;-67
2022/12/28 06:41:16;;;;;;;8.67;5.60;;;;;;;4.87;100.00;100303.47;4995479;28;20377;-67
2022/12/28 06:43:42;;;;;;;5.83;4.03;;;;;;;5.07;100.00;100316.47;5004595;28;20608;-67
2022/12/28 06:46:09;;;;;;;10.00;4.50;;;;;;;5.32;100.00;100316.63;5012219;28;20533;-67
2022/12/28 06:48:35;;;;;;;6.70;3.67;;;;;;;5.34;100.00;100314.00;5027872;28;20180;-67
2022/12/28 06:51:10;;;;;;;3.70;3.30;;;;;;;5.61;100.00;100311.53;5010115;28;20238;-67
2022/12/28 06:53:36;;;;;;;5.60;4.07;;;;;;;5.79;100.00;100303.31;5010990;28;20175;-65
2022/12/28 06:56:05;;;;;;;7.07;3.50;;;;;;;5.93;100.00;100307.97;5012028;28;20625;-66
2022/12/28 06:58:31;;;;;;;4.97;3.40;;;;;;;5.79;100.00;100305.00;5012331;28;20614;-66
2022/12/28 07:01:03;;;;;;;7.10;3.47;;;;;;;5.78;100.00;100293.13;5001206;28;20287;-66
2022/12/28 07:03:31;;;;;;;4.20;3.00;;;;;;;5.95;100.00;100297.69;5010065;28;20206;-65
2022/12/28 07:06:01;;;;;;;5.80;3.27;;;;;;;5.90;100.00;100289.34;5010773;28;20268;-66
2022/12/28 07:08:27;;;;;;;6.30;3.13;;;;;;;6.00;100.00;100288.19;5012509;28;20253;-65
2022/12/28 07:10:52;;;;;;;4.27;3.07;;;;;;;6.18;100.00;100291.03;5008664;28;20711;-66
2022/12/28 07:13:18;;;;;;;6.60;3.57;;;;;;;6.10;100.00;100288.72;5021474;28;20209;-68
2022/12/28 07:15:43;;;;;;;4.40;2.93;;;;;;;5.96;100.00;100287.44;5012608;28;20623;-68
2022/12/28 07:18:08;;;;;;;5.20;3.30;;;;;;;6.10;100.00;100287.03;5011639;28;20197;-68
2022/12/28 07:20:34;;;;;;;6.90;2.93;;;;;;;6.17;100.00;100280.00;5019883;28;20237;-68
2022/12/28 07:22:59;;;;;;;4.30;2.73;;;;;;;6.09;100.00;100271.72;5023141;28;20221;-66
2022/12/28 07:25:24;;;;;;;6.23;3.03;;;;;;;5.89;100.00;100262.16;5008333;28;20277;-66
2022/12/28 07:27:49;;;;;;;4.83;2.60;;;;;;;5.94;100.00;100256.03;5011610;28;20210;-66
2022/12/28 07:30:15;;;;;;;7.23;2.93;;;;;;;5.96;100.00;100258.50;5000685;28;20244;-66
2022/12/28 07:32:41;;;;;;;3.10;2.20;;;;;;;6.02;100.00;100260.06;5012830;28;20220;-66
2022/12/28 07:35:07;;;;;;;5.40;2.60;;;;;;;6.00;100.00;100261.84;5027228;28;20359;-66
2022/12/28 07:37:32;;;;;;;5.93;2.97;;;;;;;6.22;100.00;100261.97;5026351;28;20239;-66
2022/12/28 07:39:57;;;;;;;9.83;2.77;;;;;;;6.27;100.00;100265.19;5011504;28;20561;-66
2022/12/28 07:42:22;;;;;;;4.93;2.87;;;;;;;6.00;100.00;100257.56;5001308;28;20229;-66
2022/12/28 07:44:48;;;;;;;5.40;3.03;;;;;;;6.17;100.00;100256.19;5011745;28;20174;-66
2022/12/28 07:47:14;;;;;;;4.83;2.50;;;;;;;6.42;100.00;100266.38;5011285;28;20212;-66
2022/12/28 07:49:39;;;;;;;6.33;3.40;;;;;;;6.40;100.00;100261.31;5009694;28;20194;-66
2022/12/28 07:52:05;;;;;;;4.10;2.63;;;;;;;6.43;100.00;100260.38;5011108;28;20230;-66
2022/12/28 07:54:30;;;;;;;4.73;2.50;;;;;;;6.56;100.00;100261.63;5025292;28;20179;-65
2022/12/28 07:56:56;;;;;;;5.13;2.77;;;;;;;6.53;100.00;100261.72;5009603;28;20182;-66
2022/12/28 07:59:21;;;;;;;5.30;2.60;;;;;;;6.46;100.00;100250.91;5011732;28;20213;-66
2022/12/28 08:01:49;;;;;;;4.43;2.47;;;;;;;6.51;100.00;100253.28;4995370;28;20232;-66
2022/12/28 08:04:15;;;;;;;5.60;3.30;;;;;;;6.50;100.00;100266.09;5016600;28;20186;-65
2022/12/28 08:06:42;;;;;;;4.20;2.40;;;;;;;6.54;100.00;100265.13;5008422;28;20194;-66
2022/12/28 08:09:11;;;;;;;5.63;3.33;;;;;;;6.60;100.00;100260.63;5008042;28;20202;-66
2022/12/28 08:11:39;;;;;;;4.77;3.20;;;;;;;6.48;100.00;100260.22;5011413;28;20217;-66
2022/12/28 08:14:06;;;;;;;4.43;2.80;;;;;;;6.60;100.00;100265.75;5013584;28;20190;-66
2022/12/28 08:16:34;;;;;;;4.57;3.07;;;;;;;6.69;100.00;100267.13;5012486;28;20248;-65
2022/12/28 08:19:00;;;;;;;3.40;2.90;;;;;;;6.81;100.00;100267.56;5009404;28;20209;-68
2022/12/28 08:21:30;;;;;;;2.97;2.67;;;;;;;6.70;100.00;100255.16;5006045;28;20233;-68
2022/12/28 08:23:57;;;;;;;5.03;2.40;;;;;;;6.57;100.00;100250.53;5009848;28;20273;-68
2022/12/28 08:26:25;;;;;;;10.30;2.33;;;;;;;6.62;100.00;100260.56;5009905;28;20194;-67
2022/12/28 08:28:53;;;;;;;5.37;2.37;;;;;;;6.65;100.00;100252.81;5022116;28;20198;-65
2022/12/28 08:31:25;;;;;;;5.23;2.50;;;;;;;6.69;100.00;100256.91;5002752;28;20220;-65
2022/12/28 08:33:52;;;;;;;5.50;2.73;;;;;;;6.64;100.00;100248.56;5008211;28;20193;-66
2022/12/28 08:36:18;;;;;;;4.40;2.80;;;;;;;6.67;100.00;100250.19;5011185;28;20234;-61
2022/12/28 08:38:44;;;;;;;4.37;2.70;;;;;;;6.84;100.00;100252.97;5011359;28;20729;-56
2022/12/28 08:41:16;;;;;;;3.57;2.17;;;;;;;6.83;100.00;100247.91;5009528;28;20236;-66
2022/12/28 08:43:41;;;;;;;6.20;2.70;;;;;;;6.78;100.00;100241.25;5010183;28;20245;-64
2022/12/28 08:46:10;;;;;;;6.13;2.70;;;;;;;6.90;100.00;100249.34;5011187;28;20194;-65
2022/12/28 08:48:35;;;;;;;4.53;2.40;;;;;;;6.88;100.00;100238.34;5025853;28;20233;-64
2022/12/28 08:51:03;;;;;;;5.33;2.43;;;;;;;6.91;100.00;100241.63;4999722;28;20238;-66
2022/12/28 08:53:29;;;;;;;4.33;2.57;;;;;;;6.96;100.00;100236.34;5010551;28;20191;-65
2022/12/28 08:55:54;;;;;;;4.93;2.13;;;;;;;6.93;100.00;100233.88;5009821;28;20202;-66
2022/12/28 08:58:20;;;;;;;4.70;2.50;;;;;;;6.91;100.00;100233.94;5010856;28;20214;-66
2022/12/28 09:00:45;;;;;;;3.83;2.80;;;;;;;7.06;100.00;100234.28;5001228;28;20226;-66
2022/12/28 09:03:10;;;;;;;3.90;2.07;;;;;;;7.04;100.00;100228.38;5013816;28;20179;-66
2022/12/28 09:05:37;;;;;;;3.87;2.50;;;;;;;7.17;100.00;100224.47;5011549;28;20634;-66
2022/12/28 09:08:03;;;;;;;3.77;2.20;;;;;;;7.13;100.00;100232.31;5011359;28;20194;-67
2022/12/28 09:10:28;;;;;;;2.40;2.00;;;;;;;7.19;100.00;100222.66;5006547;28;20321;-65
2022/12/28 09:12:53;;;;;;;4.50;2.73;;;;;;;7.32;100.00;100228.16;5022149;28;20268;-66
2022/12/28 09:15:18;;;;;;;5.80;2.13;;;;;;;7.43;100.00;100222.63;5014664;28;20629;-66
2022/12/28 09:17:44;;;;;;;3.97;2.27;;;;;;;7.51;100.00;100225.69;5013842;28;20197;-66
2022/12/28 09:20:09;;;;;;;5.80;2.73;;;;;;;7.63;100.00;100228.66;5004559;28;20614;-65
2022/12/28 09:22:35;;;;;;;4.63;2.53;;;;;;;7.71;100.00;100237.69;5021863;28;20186;-65
2022/12/28 09:25:00;;;;;;;4.03;2.33;;;;;;;7.82;100.00;100239.00;5011272;28;20229;-65
2022/12/28 09:27:25;;;;;;;3.40;2.53;;;;;;;7.95;100.00;100241.88;5003023;28;20543;-65
2022/12/28 09:29:51;;;;;;;5.07;2.50;;;;;;;8.51;100.00;100248.94;5012498;28;20727;-63
2022/12/28 09:32:16;;;;;;;3.17;2.63;;;;;;;8.39;100.00;100239.16;5018203;28;20245;-64
2022/12/28 09:34:41;;;;;;;9.17;2.90;;;;;;;8.28;100.00;100238.81;5012457;28;20186;-63
2022/12/28 09:37:07;;;;;;;6.67;2.37;;;;;;;8.10;100.00;100232.72;5013233;28;20517;-64
2022/12/28 09:39:32;;;;;;;3.40;2.47;;;;;;;7.98;100.00;100239.19;5013728;28;20195;-65
2022/12/28 09:42:00;;;;;;;6.33;2.10;;;;;;;7.95;100.00;100229.06;5017856;28;20333;-66
2022/12/28 09:44:52;;;;;;;6.67;2.40;;;;;;;7.91;100.00;100234.34;5013790;28;20182;-65
2022/12/28 09:47:32;;;;;;;5.97;2.53;;;;;;;8.13;100.00;100235.16;5011600;28;20171;-66
2022/12/28 09:50:15;;;;;;;3.00;1.87;;;;;;;8.13;100.00;100243.66;5012960;28;20182;-66
2022/12/28 09:53:02;;;;;;;6.10;2.03;;;;;;;8.13;100.00;100240.28;4984978;28;20697;-65
2022/12/28 09:55:30;;;;;;;8.43;2.40;;;;;;;8.16;100.00;100229.91;5010760;28;20179;-65
2022/12/28 09:57:57;;;;;;;2.40;2.10;;;;;;;8.33;100.00;100227.44;5008967;28;20212;-66
2022/12/28 10:00:29;;;;;;;4.87;2.90;;;;;;;8.34;100.00;100233.41;5016963;28;20302;-65
2022/12/28 10:03:02;;;;;;;5.60;2.17;;;;;;;8.37;100.00;100234.13;5001254;28;20191;-66
2022/12/28 10:05:28;;;;;;;4.13;2.00;;;;;;;8.36;100.00;100232.44;5011926;28;20265;-66
2022/12/28 10:07:58;;;;;;;5.57;2.30;;;;;;;8.21;100.00;100231.38;5008241;28;20187;-66
2022/12/28 10:10:23;;;;;;;4.43;2.20;;;;;;;8.45;100.00;100225.28;4992916;28;20242;-66
2022/12/28 10:12:51;;;;;;;3.17;2.00;;;;;;;8.55;100.00;100219.69;5025801;28;20174;-66
2022/12/28 10:15:19;;;;;;;4.37;2.23;;;;;;;8.78;100.00;100222.13;5011735;28;20186;-66
2022/12/28 10:17:44;;;;;;;4.83;2.00;;;;;;;8.96;100.00;100215.34;5011556;28;20539;-66
2022/12/28 10:20:18;;;;;;;4.07;2.03;;;;;;;8.70;100.00;100207.09;5002014;28;20178;-65
2022/12/28 10:22:48;;;;;;;3.83;1.77;;;;;;;8.82;100.00;100214.22;5011557;28;20190;-66
2022/12/28 10:25:18;;;;;;;3.33;1.90;;;;;;;8.89;100.00;100212.19;5013182;28;20236;-66
2022/12/28 10:27:43;;;;;;;5.73;2.67;;;;;;;8.87;100.00;100206.31;5007759;28;20271;-66
2022/12/28 10:30:22;;;;;;;4.13;2.30;;;;;;;8.92;100.00;100204.38;5001074;28;20480;-66
2022/12/28 10:32:54;;;;;;;5.63;2.30;;;;;;;8.94;100.00;100209.44;5025291;28;20179;-66
2022/12/28 10:35:41;;;;;;;5.90;2.07;;;;;;;8.72;100.00;100208.69;5005857;28;20173;-67
2022/12/28 10:38:22;;;;;;;5.80;2.50;;;;;;;8.89;100.00;100209.63;5009433;28;20435;-66
2022/12/28 10:41:02;;;;;;;5.30;2.17;;;;;;;8.59;100.00;100212.69;5007589;28;20476;-66
2022/12/28 10:43:40;;;;;;;2.20;1.90;;;;;;;8.49;100.00;100203.75;5006662;28;20187;-66
2022/12/28 10:46:12;;;;;;;3.03;2.17;;;;;;;8.60;100.00;100205.84;5027036;28;20182;-65
2022/12/28 10:48:38;;;;;;;4.27;1.90;;;;;;;8.65;100.00;100204.72;5012542;28;20664;-66
2022/12/28 10:51:06;;;;;;;2.70;1.90;;;;;;;8.68;100.00;100203.75;5000466;28;20230;-66
2022/12/28 10:53:38;;;;;;;5.87;1.90;;;;;;;8.64;100.00;100191.97;5003267;28;20190;-65
2022/12/28 10:56:24;;;;;;;5.50;2.20;;;;;;;8.64;100.00;100192.78;5011540;28;20205;-64
2022/12/28 10:59:17;;;;;;;2.53;2.10;;;;;;;8.64;100.00;100191.97;5011056;28;20221;-65
2022/12/28 11:01:42;;;;;;;4.93;2.23;;;;;;;8.68;100.00;100194.34;4998632;28;20273;-64
2022/12/28 11:04:24;;;;;;;2.67;2.10;;;;;;;8.66;100.00;100177.34;5014289;28;20672;-65
2022/12/28 11:06:55;;;;;;;6.03;2.70;;;;;;;8.62;100.00;100176.66;5012109;28;20272;-63
2022/12/28 11:09:24;;;;;;;4.23;2.00;;;;;;;8.71;100.00;100176.22;5010903;28;20175;-64
2022/12/28 11:11:52;;;;;;;3.40;1.87;;;;;;;8.84;100.00;100173.97;5016700;28;20226;-63
2022/12/28 11:14:28;;;;;;;2.63;2.10;;;;;;;8.99;100.00;100162.16;5011953;28;20195;-64
2022/12/28 11:16:53;;;;;;;2.33;1.70;;;;;;;9.17;100.00;100157.03;5010464;28;20182;-62
2022/12/28 11:19:22;;;;;;;3.53;2.50;;;;;;;9.19;100.00;100156.06;5009098;28;20211;-63
2022/12/28 11:21:48;;;;;;;2.37;2.07;;;;;;;9.16;100.00;100147.69;5002760;28;20229;-63
2022/12/28 11:24:15;;;;;;;3.90;2.33;;;;;;;9.15;100.00;100141.72;5010246;28;20206;-79
2022/12/28 11:26:49;;;;;;;10.83;1.90;;;;;;;9.31;100.00;100131.53;5008113;28;20179;-79
2022/12/28 11:29:17;;;;;;;2.80;1.80;;;;;;;9.20;100.00;100128.66;5026607;28;20183;-63
2022/12/28 11:32:07;;;;;;;3.57;2.20;;;;;;;9.16;100.00;100125.41;5020304;28;20681;-63
2022/12/28 11:34:36;;;;;;;4.23;2.20;;;;;;;9.24;100.00;100119.91;5011769;28;20191;-63
2022/12/28 11:37:01;;;;;;;6.13;2.60;;;;;;;9.00;100.00;100124.47;5007821;28;20252;-63
2022/12/28 11:39:26;;;;;;;4.97;2.27;;;;;;;8.91;100.00;100117.22;5011781;28;20191;-63
2022/12/28 11:41:56;;;;;;;3.30;2.20;;;;;;;8.86;100.00;100112.31;5015277;28;20248;-63
2022/12/28 11:44:43;;;;;;;4.83;2.30;;;;;;;8.95;100.00;100111.03;5010590;28;20225;-63
2022/12/28 11:47:14;;;;;;;7.33;2.77;;;;;;;8.91;100.00;100107.78;5010986;28;20185;-62
2022/12/28 11:49:40;;;;;;;2.43;1.90;;;;;;;8.89;100.00;100104.47;5011834;28;20739;-63
2022/12/28 11:52:14;;;;;;;8.97;2.20;;;;;;;9.01;100.00;100103.06;5002599;28;20229;-63
2022/12/28 11:54:59;;;;;;;3.50;1.90;;;;;;;9.07;100.00;100105.31;5011249;28;20240;-63